createdAt,value
2018-11-26T00:02:00.084Z,242.87
2018-11-26T00:04:27.737Z,248.40
2018-11-26T00:06:55.379Z,246.87
2018-11-26T00:09:25.502Z,252.57
2018-11-26T00:11:54.801Z,246.93
2018-11-26T00:14:23.530Z,235.47
2018-11-26T00:16:51.968Z,247.70
2018-11-26T00:19:21.018Z,253.40
2018-11-26T00:21:48.787Z,264.67
2018-11-26T00:24:16.561Z,246.60
2018-11-26T00:26:44.354Z,246.40
2018-11-26T00:29:14.279Z,255.60
2018-11-26T00:31:41.874Z,247.37
2018-11-26T00:34:09.430Z,228.20
2018-11-26T00:36:37.284Z,244.97
2018-11-26T00:39:07.420Z,251.87
2018-11-26T00:41:35.139Z,254.87
2018-11-26T00:44:02.801Z,250.90
2018-11-26T00:46:30.358Z,223.93
2018-11-26T00:48:57.839Z,261.63
2018-11-26T00:51:25.352Z,258.23
2018-11-26T00:53:52.845Z,245.13
2018-11-26T00:56:20.308Z,253.77
2018-11-26T00:58:47.850Z,252.70
2018-11-26T01:01:15.530Z,247.67
2018-11-26T01:03:43.043Z,249.93
2018-11-26T01:06:10.869Z,250.40
2018-11-26T01:08:39.421Z,245.43
2018-11-26T01:11:07.284Z,234.40
2018-11-26T01:13:34.963Z,240.27
2018-11-26T01:16:02.495Z,242.57
2018-11-26T01:18:30.272Z,246.60
2018-11-26T01:20:57.797Z,239.73
2018-11-26T01:23:25.491Z,240.17
2018-11-26T01:25:52.959Z,238.20
2018-11-26T01:28:20.523Z,246.50
2018-11-26T01:30:48.091Z,250.07
2018-11-26T01:33:16.569Z,250.13
2018-11-26T01:35:44.311Z,246.67
2018-11-26T01:38:11.784Z,242.80
2018-11-26T01:40:45.208Z,231.50
2018-11-26T01:43:12.720Z,238.27
2018-11-26T01:45:41.411Z,236.70
2018-11-26T01:48:08.941Z,227.17
2018-11-26T01:50:36.440Z,216.17
2018-11-26T01:53:05.011Z,229.70
2018-11-26T01:55:32.572Z,224.40
2018-11-26T01:58:00.233Z,221.60
2018-11-26T02:00:27.864Z,219.90
2018-11-26T02:02:55.387Z,208.70
2018-11-26T02:05:23.012Z,217.37
2018-11-26T02:07:50.497Z,210.30
2018-11-26T02:10:19.719Z,218.43
2018-11-26T02:12:47.536Z,220.77
2018-11-26T02:15:24.926Z,194.67
2018-11-26T02:17:52.493Z,195.37
2018-11-26T02:20:20.044Z,211.70
2018-11-26T02:22:47.601Z,198.80
2018-11-26T02:25:15.105Z,202.60
2018-11-26T02:27:42.679Z,194.07
2018-11-26T02:30:10.324Z,196.53
2018-11-26T02:32:37.773Z,192.53
2018-11-26T02:35:06.242Z,188.60
2018-11-26T02:37:33.724Z,197.87
2018-11-26T02:40:01.353Z,195.50
2018-11-26T02:42:28.897Z,190.27
2018-11-26T02:44:56.397Z,193.60
2018-11-26T02:47:24.031Z,190.30
2018-11-26T02:49:51.564Z,185.67
2018-11-26T02:52:19.204Z,183.87
2018-11-26T02:54:46.792Z,191.17
2018-11-26T02:57:14.359Z,192.23
2018-11-26T02:59:41.871Z,196.37
2018-11-26T03:02:10.201Z,193.33
2018-11-26T03:04:37.708Z,187.40
2018-11-26T03:07:05.736Z,181.87
2018-11-26T03:09:33.208Z,191.03
2018-11-26T03:12:00.738Z,182.60
2018-11-26T03:14:28.298Z,185.23
2018-11-26T03:16:56.347Z,181.77
2018-11-26T03:19:24.960Z,173.30
2018-11-26T03:21:52.450Z,181.70
2018-11-26T03:24:20.278Z,175.37
2018-11-26T03:26:47.789Z,174.10
2018-11-26T03:29:15.396Z,182.60
2018-11-26T03:31:43.076Z,172.23
2018-11-26T03:34:10.561Z,180.10
2018-11-26T03:36:38.066Z,180.33
2018-11-26T03:39:06.768Z,184.83
2018-11-26T03:41:34.308Z,184.03
2018-11-26T03:44:02.047Z,179.37
2018-11-26T03:46:29.612Z,174.90
2018-11-26T03:48:57.287Z,165.30
2018-11-26T03:51:24.864Z,170.70
2018-11-26T03:53:52.357Z,165.53
2018-11-26T03:56:20.093Z,175.83
2018-11-26T03:58:47.645Z,167.23
2018-11-26T04:01:15.136Z,166.53
2018-11-26T04:03:43.285Z,163.70
2018-11-26T04:06:10.803Z,166.97
2018-11-26T04:08:38.372Z,163.17
2018-11-26T04:11:05.938Z,177.43
2018-11-26T04:13:33.419Z,166.07
2018-11-26T04:18:39.211Z,172.87
2018-11-26T04:21:06.700Z,166.43
2018-11-26T04:23:34.201Z,164.03
2018-11-26T04:26:01.731Z,162.60
2018-11-26T04:28:29.308Z,164.67
2018-11-26T04:30:57.872Z,165.60
2018-11-26T04:33:25.351Z,159.97
2018-11-26T04:35:52.856Z,168.07
2018-11-26T04:38:20.375Z,161.93
2018-11-26T04:40:48.534Z,162.90
2018-11-26T04:43:16.000Z,164.40
2018-11-26T04:45:43.514Z,171.67
2018-11-26T04:48:10.979Z,168.73
2018-11-26T04:50:38.604Z,169.10
2018-11-26T04:53:06.218Z,165.90
2018-11-26T04:55:33.743Z,164.50
2018-11-26T04:58:01.363Z,167.43
2018-11-26T05:00:29.082Z,158.60
2018-11-26T05:02:57.344Z,161.67
2018-11-26T05:05:24.950Z,163.77
2018-11-26T05:07:52.474Z,166.70
2018-11-26T05:10:20.115Z,157.70
2018-11-26T05:12:47.741Z,159.83
2018-11-26T05:15:15.448Z,159.00
2018-11-26T05:17:43.000Z,160.77
2018-11-26T05:20:11.625Z,166.00
2018-11-26T05:22:39.238Z,167.30
2018-11-26T05:25:08.439Z,160.97
2018-11-26T05:27:36.376Z,158.43
2018-11-26T05:30:07.135Z,163.27
2018-11-26T05:32:34.743Z,167.93
2018-11-26T05:35:02.287Z,159.57
2018-11-26T05:37:29.890Z,155.53
2018-11-26T05:39:57.511Z,158.30
2018-11-26T05:42:28.801Z,158.17
2018-11-26T05:44:52.669Z,151.47
2018-11-26T05:47:20.188Z,153.17
2018-11-26T05:49:47.753Z,159.37
2018-11-26T05:52:15.511Z,158.10
2018-11-26T05:54:43.082Z,154.07
2018-11-26T05:57:11.410Z,156.13
2018-11-26T05:59:39.995Z,156.23
2018-11-26T06:02:08.201Z,152.83
2018-11-26T06:04:35.911Z,158.33
2018-11-26T06:07:04.031Z,158.73
2018-11-26T06:09:31.612Z,156.03
2018-11-26T06:11:59.178Z,151.77
2018-11-26T06:14:26.768Z,149.77
2018-11-26T06:16:54.272Z,161.50
2018-11-26T06:19:21.874Z,152.60
2018-11-26T06:21:50.638Z,158.67
2018-11-26T06:24:18.312Z,154.00
2018-11-26T06:26:45.890Z,156.17
2018-11-26T06:29:13.491Z,160.90
2018-11-26T06:31:41.213Z,152.70
2018-11-26T06:34:08.851Z,149.47
2018-11-26T06:36:36.539Z,148.83
2018-11-26T06:39:07.045Z,148.60
2018-11-26T06:41:34.606Z,144.57
2018-11-26T06:44:02.164Z,150.77
2018-11-26T06:46:29.747Z,151.30
2018-11-26T06:48:57.258Z,153.77
2018-11-26T06:51:24.967Z,149.67
2018-11-26T06:53:52.635Z,146.67
2018-11-26T06:56:20.226Z,157.60
2018-11-26T06:58:47.905Z,157.37
2018-11-26T07:01:15.497Z,155.07
2018-11-26T07:03:45.477Z,158.93
2018-11-26T07:06:20.678Z,148.17
2018-11-26T07:08:48.228Z,151.33
2018-11-26T07:11:15.750Z,152.07
2018-11-26T07:13:43.306Z,152.23
2018-11-26T07:16:10.843Z,158.33
2018-11-26T07:18:38.360Z,153.90
2018-11-26T07:21:06.332Z,145.87
2018-11-26T07:23:33.864Z,159.50
2018-11-26T07:26:01.909Z,158.73
2018-11-26T07:28:29.483Z,151.27
2018-11-26T07:30:57.015Z,162.60
2018-11-26T07:33:24.504Z,155.87
2018-11-26T07:35:52.058Z,150.77
2018-11-26T07:38:19.660Z,151.90
2018-11-26T07:40:47.678Z,151.77
2018-11-26T07:43:15.286Z,155.53
2018-11-26T07:45:42.848Z,161.27
2018-11-26T07:48:11.364Z,152.83
2018-11-26T07:50:38.885Z,149.30
2018-11-26T07:53:08.386Z,155.17
2018-11-26T07:55:36.302Z,156.97
2018-11-26T07:58:04.125Z,152.13
2018-11-26T08:00:31.905Z,155.53
2018-11-26T08:02:59.652Z,148.30
2018-11-26T08:05:27.146Z,162.53
2018-11-26T08:07:54.704Z,150.63
2018-11-26T08:10:23.050Z,148.03
2018-11-26T08:12:51.739Z,160.70
2018-11-26T08:15:22.442Z,155.63
2018-11-26T08:17:49.244Z,154.53
2018-11-26T08:20:16.973Z,155.87
2018-11-26T08:22:44.598Z,152.57
2018-11-26T08:25:13.285Z,150.73
2018-11-26T08:27:41.585Z,148.97
2018-11-26T08:30:26.208Z,149.63
2018-11-26T08:32:57.589Z,149.53
2018-11-26T08:35:25.852Z,150.10
2018-11-26T08:39:00.722Z,152.07
2018-11-26T08:41:35.340Z,152.17
2018-11-26T08:44:09.625Z,148.53
2018-11-26T08:46:42.617Z,145.00
2018-11-26T08:49:12.818Z,147.17
2018-11-26T08:51:40.597Z,149.73
2018-11-26T08:54:08.199Z,151.33
2018-11-26T08:56:35.807Z,150.70
2018-11-26T08:59:03.536Z,148.57
2018-11-26T09:01:32.942Z,158.83
2018-11-26T09:04:03.831Z,156.57
2018-11-26T09:06:31.728Z,150.27
2018-11-26T09:08:59.388Z,148.73
2018-11-26T09:11:27.624Z,152.70
2018-11-26T09:13:55.344Z,157.37
2018-11-26T09:16:22.951Z,148.20
2018-11-26T09:18:50.856Z,159.00
2018-11-26T09:21:18.336Z,155.67
2018-11-26T09:23:46.851Z,148.47
2018-11-26T09:26:14.342Z,146.43
2018-11-26T09:28:41.890Z,149.40
2018-11-26T09:31:09.472Z,155.53
2018-11-26T09:33:37.118Z,150.80
2018-11-26T09:36:04.670Z,148.67
2018-11-26T09:38:32.219Z,149.00
2018-11-26T09:40:59.945Z,158.57
2018-11-26T09:43:27.530Z,153.50
2018-11-26T09:45:55.071Z,148.00
2018-11-26T09:48:22.695Z,149.57
2018-11-26T09:50:50.256Z,147.97
2018-11-26T09:53:17.725Z,154.33
2018-11-26T09:55:45.205Z,147.20
2018-11-26T09:58:12.775Z,145.10
2018-11-26T10:00:40.304Z,154.63
2018-11-26T10:03:07.946Z,150.47
2018-11-26T10:05:35.643Z,148.33
2018-11-26T10:08:04.313Z,145.17
2018-11-26T10:10:31.825Z,159.50
2018-11-26T10:12:59.330Z,151.47
2018-11-26T10:15:27.258Z,156.13
2018-11-26T10:17:54.838Z,156.60
2018-11-26T10:20:22.338Z,140.87
2018-11-26T10:22:50.935Z,151.53
2018-11-26T10:25:20.444Z,156.13
2018-11-26T10:27:48.023Z,150.77
2018-11-26T10:30:18.361Z,146.30
2018-11-26T10:32:46.532Z,147.27
2018-11-26T10:35:15.874Z,140.90
2018-11-26T10:37:43.525Z,148.37
2018-11-26T10:40:13.315Z,145.17
2018-11-26T10:42:41.799Z,147.50
2018-11-26T10:45:10.796Z,139.60
2018-11-26T10:47:38.327Z,142.53
2018-11-26T10:50:08.200Z,146.77
2018-11-26T10:52:36.439Z,144.17
2018-11-26T10:55:10.380Z,147.97
2018-11-26T10:57:38.277Z,141.83
2018-11-26T11:00:08.287Z,144.90
2018-11-26T11:02:42.095Z,146.80
2018-11-26T11:05:09.826Z,142.10
2018-11-26T11:07:37.629Z,146.77
2018-11-26T11:10:08.999Z,146.20
2018-11-26T11:12:36.504Z,137.93
2018-11-26T11:15:05.652Z,153.07
2018-11-26T11:17:33.337Z,149.80
2018-11-26T11:20:00.948Z,146.70
2018-11-26T11:22:28.304Z,140.20
2018-11-26T11:24:55.915Z,143.90
2018-11-26T11:27:23.479Z,141.27
2018-11-26T11:29:51.070Z,147.87
2018-11-26T11:32:18.559Z,147.63
2018-11-26T11:34:46.634Z,141.47
2018-11-26T11:37:14.326Z,142.70
2018-11-26T11:39:41.839Z,151.50
2018-11-26T11:42:09.648Z,144.47
2018-11-26T11:44:38.204Z,150.83
2018-11-26T11:47:05.790Z,143.87
2018-11-26T11:49:33.657Z,139.60
2018-11-26T11:52:01.171Z,151.20
2018-11-26T11:54:28.683Z,152.57
2018-11-26T11:56:56.187Z,138.20
2018-11-26T11:59:23.685Z,138.80
2018-11-26T12:01:51.258Z,143.67
2018-11-26T12:04:18.868Z,140.17
2018-11-26T12:06:46.326Z,134.93
2018-11-26T12:09:13.824Z,135.77
2018-11-26T12:11:41.329Z,138.50
2018-11-26T12:14:08.947Z,133.47
2018-11-26T12:16:36.340Z,133.83
2018-11-26T12:19:05.600Z,135.47
2018-11-26T12:21:33.363Z,131.37
2018-11-26T12:24:00.858Z,136.37
2018-11-26T12:26:29.525Z,131.87
2018-11-26T12:28:57.450Z,130.17
2018-11-26T12:31:25.080Z,137.27
2018-11-26T12:33:52.716Z,132.60
2018-11-26T12:36:20.234Z,130.40
2018-11-26T12:38:47.800Z,122.37
2018-11-26T12:41:15.396Z,126.87
2018-11-26T12:43:43.143Z,125.30
2018-11-26T12:46:10.699Z,131.57
2018-11-26T12:48:38.287Z,130.77
2018-11-26T12:51:05.794Z,130.97
2018-11-26T12:53:33.412Z,132.57
2018-11-26T12:56:01.017Z,129.63
2018-11-26T12:58:28.603Z,122.87
2018-11-26T13:00:56.119Z,123.33
2018-11-26T13:03:23.790Z,128.47
2018-11-26T13:05:51.336Z,123.57
2018-11-26T13:08:18.812Z,126.37
2018-11-26T13:10:46.436Z,126.23
2018-11-26T13:13:13.955Z,122.80
2018-11-26T13:15:41.466Z,128.00
2018-11-26T13:18:08.986Z,127.07
2018-11-26T13:20:36.504Z,127.30
2018-11-26T13:23:05.297Z,128.60
2018-11-26T13:25:34.171Z,122.97
2018-11-26T13:28:02.660Z,122.20
2018-11-26T13:30:34.207Z,125.67
2018-11-26T13:33:03.162Z,130.50
2018-11-26T13:35:30.662Z,123.97
2018-11-26T13:37:58.425Z,128.70
2018-11-26T13:40:26.074Z,121.60
2018-11-26T13:42:53.653Z,123.80
2018-11-26T13:45:26.498Z,118.90
2018-11-26T13:47:54.071Z,124.07
2018-11-26T13:50:24.664Z,122.17
2018-11-26T13:52:52.235Z,123.27
2018-11-26T13:55:19.681Z,123.17
2018-11-26T13:57:47.093Z,117.93
2018-11-26T14:00:15.522Z,121.50
2018-11-26T14:02:43.070Z,130.97
2018-11-26T14:05:13.537Z,127.67
2018-11-26T14:07:41.085Z,120.77
2018-11-26T14:10:10.079Z,125.97
2018-11-26T14:12:37.609Z,119.10
2018-11-26T14:15:08.575Z,122.80
2018-11-26T14:17:36.176Z,122.93
2018-11-26T14:20:05.286Z,120.40
2018-11-26T14:22:32.834Z,123.87
2018-11-26T14:25:00.364Z,121.33
2018-11-26T14:27:27.842Z,120.00
2018-11-26T14:29:55.394Z,119.33
2018-11-26T14:32:23.125Z,125.60
2018-11-26T14:34:50.735Z,124.07
2018-11-26T14:37:18.196Z,124.57
2018-11-26T14:39:45.850Z,125.33
2018-11-26T14:42:13.534Z,122.90
2018-11-26T14:44:41.101Z,124.03
2018-11-26T14:47:08.601Z,122.33
2018-11-26T14:49:36.086Z,129.23
2018-11-26T14:52:03.669Z,122.30
2018-11-26T14:54:31.304Z,121.40
2018-11-26T14:56:58.950Z,119.17
2018-11-26T14:59:27.426Z,122.67
2018-11-26T15:01:54.936Z,119.70
2018-11-26T15:04:22.572Z,120.67
2018-11-26T15:06:50.188Z,120.40
2018-11-26T15:09:17.694Z,122.23
2018-11-26T15:11:45.187Z,117.97
2018-11-26T15:14:12.800Z,117.13
2018-11-26T15:16:40.348Z,118.50
2018-11-26T15:19:07.948Z,121.43
2018-11-26T15:21:35.453Z,121.53
2018-11-26T15:24:03.525Z,122.13
2018-11-26T15:26:31.116Z,115.60
2018-11-26T15:28:58.656Z,120.60
2018-11-26T15:31:26.193Z,122.67
2018-11-26T15:33:53.659Z,121.97
2018-11-26T15:36:21.124Z,122.77
2018-11-26T15:38:48.586Z,122.73
2018-11-26T15:41:16.095Z,122.87
2018-11-26T15:43:43.575Z,119.27
2018-11-26T15:46:11.046Z,117.77
2018-11-26T15:48:38.993Z,115.27
2018-11-26T15:51:06.477Z,120.37
2018-11-26T15:53:33.983Z,118.67
2018-11-26T15:56:01.524Z,120.50
2018-11-26T15:58:29.151Z,118.27
2018-11-26T16:00:56.614Z,118.87
2018-11-26T16:03:24.115Z,118.07
2018-11-26T16:05:51.707Z,122.67
2018-11-26T16:08:19.207Z,120.37
2018-11-26T16:10:46.703Z,121.90
2018-11-26T16:13:15.353Z,124.00
2018-11-26T16:15:43.715Z,120.27
2018-11-26T16:18:14.069Z,124.30
2018-11-26T16:20:41.678Z,121.10
2018-11-26T16:23:09.913Z,122.57
2018-11-26T16:25:39.601Z,124.97
2018-11-26T16:28:07.189Z,123.73
2018-11-26T16:30:34.690Z,120.93
2018-11-26T16:33:02.296Z,121.17
2018-11-26T16:35:31.250Z,125.63
2018-11-26T16:37:58.999Z,132.73
2018-11-26T16:40:26.488Z,127.10
2018-11-26T16:42:54.057Z,126.00
2018-11-26T16:45:22.841Z,135.07
2018-11-26T16:47:51.308Z,139.20
2018-11-26T16:50:19.898Z,135.57
2018-11-26T16:52:47.484Z,134.10
2018-11-26T16:55:15.764Z,138.60
2018-11-26T16:57:43.249Z,126.20
2018-11-26T17:00:15.897Z,131.07
2018-11-26T17:02:43.547Z,157.57
2018-11-26T17:05:13.668Z,133.67
2018-11-26T17:07:41.956Z,123.40
2018-11-26T17:10:10.057Z,126.07
2018-11-26T17:12:37.781Z,123.40
2018-11-26T17:15:07.598Z,122.17
2018-11-26T17:17:35.119Z,125.37
2018-11-26T17:20:02.679Z,122.27
2018-11-26T17:22:30.354Z,117.87
2018-11-26T17:24:57.866Z,116.40
2018-11-26T17:27:25.419Z,122.43
2018-11-26T17:29:53.140Z,118.70
2018-11-26T17:32:20.574Z,120.67
2018-11-26T17:34:48.020Z,117.00
2018-11-26T17:37:15.628Z,123.10
2018-11-26T17:39:43.205Z,118.67
2018-11-26T17:42:10.648Z,125.17
2018-11-26T17:44:38.940Z,122.37
2018-11-26T17:47:06.507Z,122.23
2018-11-26T17:49:34.013Z,127.77
2018-11-26T17:52:01.520Z,127.30
2018-11-26T17:54:30.111Z,124.43
2018-11-26T17:56:57.656Z,129.63
2018-11-26T17:59:25.147Z,129.27
2018-11-26T18:01:52.639Z,127.90
2018-11-26T18:04:21.268Z,126.37
2018-11-26T18:06:48.745Z,126.60
2018-11-26T18:09:16.276Z,125.50
2018-11-26T18:11:43.820Z,123.80
2018-11-26T18:14:11.303Z,120.60
2018-11-26T18:16:38.786Z,126.97
2018-11-26T18:19:06.346Z,119.90
2018-11-26T18:21:33.947Z,129.60
2018-11-26T18:24:01.493Z,126.93
2018-11-26T18:26:30.120Z,126.07
2018-11-26T18:28:57.624Z,126.50
2018-11-26T18:31:25.156Z,124.30
2018-11-26T18:33:52.745Z,123.60
2018-11-26T18:36:20.280Z,123.93
2018-11-26T18:38:48.543Z,122.87
2018-11-26T18:41:17.040Z,123.87
2018-11-26T18:43:45.140Z,120.60
2018-11-26T18:46:13.706Z,123.57
2018-11-26T18:48:43.059Z,120.17
2018-11-26T18:51:12.719Z,120.27
2018-11-26T18:53:40.292Z,121.03
2018-11-26T18:56:08.456Z,118.87
2018-11-26T18:58:37.034Z,121.40
2018-11-26T19:01:06.793Z,121.33
2018-11-26T19:03:35.068Z,117.67
2018-11-26T19:06:02.884Z,126.57
2018-11-26T19:08:30.409Z,122.27
2018-11-26T19:11:09.060Z,121.30
2018-11-26T19:13:52.627Z,115.37
2018-11-26T19:16:22.233Z,120.10
2018-11-26T19:18:49.874Z,121.63
2018-11-26T19:21:20.907Z,120.90
2018-11-26T19:23:48.464Z,124.10
2018-11-26T19:26:15.927Z,135.90
2018-11-26T19:28:43.740Z,132.83
2018-11-26T19:31:11.362Z,126.87
2018-11-26T19:33:38.918Z,120.73
2018-11-26T19:36:06.795Z,128.97
2018-11-26T19:38:34.284Z,128.23
2018-11-26T19:41:01.806Z,128.10
2018-11-26T19:43:29.298Z,126.87
2018-11-26T19:45:56.915Z,129.90
2018-11-26T19:48:24.450Z,125.13
2018-11-26T19:50:52.210Z,122.47
2018-11-26T19:53:19.785Z,121.40
2018-11-26T19:55:47.299Z,123.73
2018-11-26T19:58:14.759Z,127.50
2018-11-26T20:00:42.273Z,122.97
2018-11-26T20:03:20.347Z,124.30
2018-11-26T20:05:52.076Z,124.60
2018-11-26T20:08:19.621Z,123.30
2018-11-26T20:10:47.185Z,121.57
2018-11-26T20:13:14.693Z,125.03
2018-11-26T20:15:42.214Z,119.43
2018-11-26T20:18:09.749Z,125.20
2018-11-26T20:20:37.288Z,123.70
2018-11-26T20:23:05.551Z,123.00
2018-11-26T20:25:33.035Z,121.00
2018-11-26T20:28:00.558Z,118.10
2018-11-26T20:30:28.045Z,119.73
2018-11-26T20:32:55.537Z,116.17
2018-11-26T20:35:23.434Z,122.67
2018-11-26T20:37:51.083Z,119.40
2018-11-26T20:40:18.604Z,119.07
2018-11-26T20:42:51.493Z,120.07
2018-11-26T20:45:19.105Z,118.67
2018-11-26T20:47:47.638Z,117.60
2018-11-26T20:50:24.281Z,117.57
2018-11-26T20:52:51.846Z,118.70
2018-11-26T20:55:20.452Z,116.77
2018-11-26T20:57:49.161Z,118.50
2018-11-26T21:00:21.018Z,127.73
2018-11-26T21:02:50.220Z,120.67
2018-11-26T21:05:17.810Z,119.93
2018-11-26T21:07:45.352Z,121.73
2018-11-26T21:10:14.100Z,117.30
2018-11-26T21:12:41.673Z,116.63
2018-11-26T21:15:13.339Z,118.60
2018-11-26T21:17:41.506Z,116.80
2018-11-26T21:20:17.906Z,119.80
2018-11-26T21:22:45.508Z,118.83
2018-11-26T21:25:14.535Z,121.57
2018-11-26T21:27:42.263Z,120.20
2018-11-26T21:30:14.980Z,124.93
2018-11-26T21:32:42.629Z,119.07
2018-11-26T21:35:11.461Z,124.03
2018-11-26T21:37:40.115Z,122.97
2018-11-26T21:40:09.181Z,118.60
2018-11-26T21:42:36.802Z,121.53
2018-11-26T21:45:08.137Z,124.43
2018-11-26T21:47:35.775Z,121.33
2018-11-26T21:50:03.543Z,122.07
2018-11-26T21:52:31.125Z,119.67
2018-11-26T21:54:58.742Z,119.50
2018-11-26T21:57:26.581Z,120.73
2018-11-26T21:59:54.245Z,118.70
2018-11-26T22:02:21.785Z,119.30
2018-11-26T22:04:49.428Z,119.97
2018-11-26T22:07:17.054Z,117.10
2018-11-26T22:09:59.999Z,124.73
2018-11-26T22:12:27.675Z,121.90
2018-11-26T22:14:55.301Z,120.37
2018-11-26T22:17:22.975Z,120.60
2018-11-26T22:19:50.628Z,122.90
2018-11-26T22:22:18.355Z,121.97
2018-11-26T22:24:45.948Z,120.20
2018-11-26T22:27:13.532Z,121.47
2018-11-26T22:29:41.133Z,123.37
2018-11-26T22:32:08.837Z,124.27
2018-11-26T22:34:36.548Z,124.80
2018-11-26T22:37:04.247Z,119.73
2018-11-26T22:39:31.926Z,120.20
2018-11-26T22:41:59.664Z,123.30
2018-11-26T22:44:27.384Z,120.07
2018-11-26T22:46:54.966Z,131.53
2018-11-26T22:49:22.696Z,120.27
2018-11-26T22:51:51.671Z,124.37
2018-11-26T22:54:19.115Z,124.90
2018-11-26T22:56:46.797Z,126.17
2018-11-26T22:59:14.468Z,124.23
2018-11-26T23:01:42.071Z,124.33
2018-11-26T23:04:09.706Z,122.90
2018-11-26T23:06:37.325Z,124.57
2018-11-26T23:09:07.447Z,125.07
2018-11-26T23:11:35.132Z,124.63
2018-11-26T23:14:02.737Z,124.00
2018-11-26T23:16:31.277Z,128.40
2018-11-26T23:18:58.829Z,124.53
2018-11-26T23:21:26.470Z,125.80
2018-11-26T23:23:53.944Z,122.13
2018-11-26T23:26:21.553Z,124.63
2018-11-26T23:28:49.200Z,129.37
2018-11-26T23:31:18.441Z,125.33
2018-11-26T23:33:46.101Z,121.87
2018-11-26T23:36:13.691Z,124.43
2018-11-26T23:38:41.321Z,122.57
2018-11-26T23:41:08.844Z,126.50
2018-11-26T23:43:37.186Z,121.90
2018-11-26T23:46:04.765Z,128.07
2018-11-26T23:48:32.296Z,122.83
2018-11-26T23:50:59.907Z,124.57
2018-11-26T23:53:27.413Z,121.70
2018-11-26T23:55:54.986Z,124.90
2018-11-26T23:58:22.576Z,126.73
